Time;durP1;ratioP1;P1;durP2;ratioP2;P2;SDS_P1;SDS_P2;PMS_P1;PMS_P2;Temp;Humidity;BMP_temperature;BMP_pressure;BME280_temperature;BME280_humidity;BME280_pressure;Samples;Min_cycle;Max_cycle;Signal;HPM_P1;HPM_P2
2024/02/04 00:01:02;;;;;;;;;;;230.90;2252.80;;;;;;5107388;28;19930;-78
2024/02/04 00:03:28;;;;;;;;;;;230.90;2252.80;;;;;;5124406;27;19915;-78
2024/02/04 00:05:54;;;;;;;;;;;230.90;2252.80;;;;;;5113739;27;19907;-79
2024/02/04 00:08:20;;;;;;;;;;;230.80;2252.80;;;;;;5105674;28;19915;-77
2024/02/04 00:10:45;;;;;;;;;;;230.80;2252.80;;;;;;5129545;27;20002;-78
2024/02/04 00:13:11;;;;;;;;;;;230.80;2252.80;;;;;;5121061;27;19916;-76
2024/02/04 00:15:36;;;;;;;;;;;230.80;2252.80;;;;;;5112434;27;20420;-76
2024/02/04 00:18:02;;;;;;;;;;;230.80;2252.80;;;;;;5108414;27;19955;-78
2024/02/04 00:20:29;;;;;;;;;;;230.80;2252.80;;;;;;5109126;28;19904;-77
2024/02/04 00:22:54;;;;;;;;;;;230.70;2252.80;;;;;;5127702;27;19904;-75
2024/02/04 00:25:20;;;;;;;;;;;230.70;2252.80;;;;;;5110860;27;19914;-78
2024/02/04 00:27:46;;;;;;;;;;;230.70;2252.80;;;;;;5101897;28;20285;-78
2024/02/04 00:30:11;;;;;;;;;;;230.80;2252.80;;;;;;5108315;27;19914;-76
2024/02/04 00:32:37;;;;;;;;;;;230.80;2252.80;;;;;;5109250;28;19954;-76
2024/02/04 00:35:03;;;;;;;;;;;230.80;2252.80;;;;;;5127554;28;19936;-78
2024/02/04 00:37:28;;;;;;;;;;;230.80;2252.80;;;;;;5098148;28;19915;-76
2024/02/04 00:39:54;;;;;;;;;;;230.80;2252.80;;;;;;5119465;28;19909;-75
2024/02/04 00:42:19;;;;;;;;;;;230.90;2252.80;;;;;;5118675;28;19952;-76
2024/02/04 00:44:45;;;;;;;;;;;230.90;2252.80;;;;;;5111704;28;19912;-75
2024/02/04 00:47:11;;;;;;;;;;;230.90;2252.80;;;;;;5098011;28;19919;-79
2024/02/04 00:49:36;;;;;;;;;;;230.90;2252.80;;;;;;5127291;27;19935;-76
2024/02/04 00:52:02;;;;;;;;;;;230.90;2252.80;;;;;;5124643;27;20257;-76
2024/02/04 00:54:27;;;;;;;;;;;230.90;2252.80;;;;;;5119532;27;19995;-76
2024/02/04 00:56:54;;;;;;;;;;;230.90;2252.80;;;;;;5110124;27;19907;-76
2024/02/04 00:59:19;;;;;;;;;;;230.90;2252.80;;;;;;5116693;27;19953;-76
2024/02/04 01:01:45;;;;;;;;;;;230.90;2252.80;;;;;;5124904;27;19907;-78
2024/02/04 01:04:10;;;;;;;;;;;230.90;2252.80;;;;;;5086512;28;20002;-78
2024/02/04 01:06:36;;;;;;;;;;;231.00;2252.80;;;;;;5108025;27;19911;-78
2024/02/04 01:09:01;;;;;;;;;;;231.00;2252.80;;;;;;5123161;27;19908;-79
2024/02/04 01:11:29;;;;;;;;;;;231.00;2252.80;;;;;;5095032;27;19911;-78
2024/02/04 01:13:54;;;;;;;;;;;231.00;2252.80;;;;;;5105847;28;19908;-77
2024/02/04 01:16:20;;;;;;;;;;;231.10;2252.80;;;;;;5115648;27;20003;-77
2024/02/04 01:18:45;;;;;;;;;;;231.10;2252.80;;;;;;5133556;27;20418;-77
2024/02/04 01:21:11;;;;;;;;;;;231.10;2252.80;;;;;;5104538;28;19908;-81
2024/02/04 01:23:37;;;;;;;;;;;231.00;2252.80;;;;;;5120660;27;20428;-79
2024/02/04 01:26:02;;;;;;;;;;;231.00;2252.80;;;;;;5103548;27;19948;-77
2024/02/04 01:28:28;;;;;;;;;;;230.90;2252.80;;;;;;5113155;27;19908;-78
2024/02/04 01:30:54;;;;;;;;;;;230.90;2252.80;;;;;;5104152;28;20000;-78
2024/02/04 01:33:19;;;;;;;;;;;230.90;2252.80;;;;;;5112214;27;19916;-76
2024/02/04 01:35:45;;;;;;;;;;;230.80;2252.80;;;;;;5124923;27;19964;-76
2024/02/04 01:38:10;;;;;;;;;;;230.90;2252.80;;;;;;5109509;28;19908;-76
2024/02/04 01:40:36;;;;;;;;;;;230.90;2252.80;;;;;;5113758;27;19939;-75
2024/02/04 01:43:02;;;;;;;;;;;230.90;2252.80;;;;;;5123623;27;20006;-76
2024/02/04 01:45:27;;;;;;;;;;;230.90;2252.80;;;;;;5125547;27;20364;-78
2024/02/04 01:47:54;;;;;;;;;;;231.00;2252.80;;;;;;5113107;28;20325;-77
2024/02/04 01:50:19;;;;;;;;;;;230.90;2252.80;;;;;;5124538;27;20245;-75
2024/02/04 01:52:45;;;;;;;;;;;230.90;2252.80;;;;;;5128432;27;19922;-76
2024/02/04 01:55:11;;;;;;;;;;;230.90;2252.80;;;;;;5136508;28;19903;-76
2024/02/04 01:57:37;;;;;;;;;;;231.00;2252.80;;;;;;5135734;27;20181;-79
2024/02/04 02:00:04;;;;;;;;;;;231.00;2252.80;;;;;;5135866;27;19903;-78
2024/02/04 02:02:30;;;;;;;;;;;231.00;2252.80;;;;;;5135933;28;19910;-78
2024/02/04 02:04:56;;;;;;;;;;;231.00;2252.80;;;;;;5117664;28;19910;-78
2024/02/04 02:07:27;;;;;;;;;;;231.10;2252.80;;;;;;5117043;28;19942;-78
2024/02/04 02:09:52;;;;;;;;;;;231.00;2252.80;;;;;;5117968;28;20022;-78
2024/02/04 02:12:21;;;;;;;;;;;230.90;2252.80;;;;;;5135951;28;20420;-78
2024/02/04 02:14:50;;;;;;;;;;;230.90;2252.80;;;;;;5136006;28;19914;-76
2024/02/04 02:17:20;;;;;;;;;;;230.90;2252.80;;;;;;5122510;28;19950;-77
2024/02/04 02:19:49;;;;;;;;;;;230.80;2252.80;;;;;;5135512;27;19903;-76
2024/02/04 02:22:23;;;;;;;;;;;230.80;2252.80;;;;;;5117631;28;19904;-77
2024/02/04 02:24:50;;;;;;;;;;;230.80;2252.80;;;;;;5116348;28;19904;-78
2024/02/04 02:27:16;;;;;;;;;;;230.90;2252.80;;;;;;5104229;28;20277;-77
2024/02/04 02:29:42;;;;;;;;;;;230.90;2252.80;;;;;;5126751;28;19910;-78
2024/02/04 02:32:07;;;;;;;;;;;230.90;2252.80;;;;;;5116615;28;20280;-78
2024/02/04 02:34:33;;;;;;;;;;;230.80;2252.80;;;;;;5116878;28;20010;-78
2024/02/04 02:37:14;;;;;;;;;;;230.80;2252.80;;;;;;5135893;28;20001;-79
2024/02/04 02:39:48;;;;;;;;;;;230.70;2252.80;;;;;;5135066;27;19907;-80
2024/02/04 02:42:16;;;;;;;;;;;230.70;2252.80;;;;;;5117175;28;19911;-80
2024/02/04 02:44:43;;;;;;;;;;;230.70;2252.80;;;;;;5121810;28;19914;-80
2024/02/04 02:47:09;;;;;;;;;;;230.60;2252.80;;;;;;5137427;27;19964;-78
2024/02/04 02:49:34;;;;;;;;;;;230.60;2252.80;;;;;;5120496;28;19998;-76
2024/02/04 02:52:00;;;;;;;;;;;230.50;2252.80;;;;;;5124104;27;19915;-77
2024/02/04 02:54:26;;;;;;;;;;;230.50;2252.80;;;;;;5065089;27;1351220;-78
2024/02/04 02:56:51;;;;;;;;;;;230.50;2252.80;;;;;;5141762;27;19907;-78
2024/02/04 02:59:17;;;;;;;;;;;230.50;2252.80;;;;;;5125632;27;19998;-76
2024/02/04 03:01:43;;;;;;;;;;;230.40;2252.80;;;;;;5120052;27;20421;-76
2024/02/04 03:04:09;;;;;;;;;;;205.70;2252.80;;;;;;5131430;27;20365;-76
2024/02/04 03:06:35;;;;;;;;;;;205.70;2252.80;;;;;;5143360;27;19907;-76
2024/02/04 03:09:00;;;;;;;;;;;230.40;2252.80;;;;;;5125435;27;20453;-76
2024/02/04 03:11:26;;;;;;;;;;;230.50;2252.80;;;;;;5122881;27;19942;-76
2024/02/04 03:13:51;;;;;;;;;;;230.50;2252.80;;;;;;5102717;28;19911;-76
2024/02/04 03:16:17;;;;;;;;;;;230.60;2252.80;;;;;;5137728;27;20395;-76
2024/02/04 03:18:43;;;;;;;;;;;230.60;2252.80;;;;;;5145544;27;19907;-75
2024/02/04 03:21:13;;;;;;;;;;;230.60;2252.80;;;;;;5118814;27;19960;-77
2024/02/04 03:23:38;;;;;;;;;;;230.60;2252.80;;;;;;5118973;27;20302;-76
2024/02/04 03:26:04;;;;;;;;;;;230.50;2252.80;;;;;;5134780;27;19903;-76
2024/02/04 03:28:30;;;;;;;;;;;230.40;2252.80;;;;;;5123414;27;19915;-79
2024/02/04 03:30:55;;;;;;;;;;;230.50;2252.80;;;;;;5119007;27;19904;-76
2024/02/04 03:33:21;;;;;;;;;;;230.40;2252.80;;;;;;5144386;27;19918;-77
2024/02/04 03:35:46;;;;;;;;;;;230.50;2252.80;;;;;;5130159;27;20292;-78
2024/02/04 03:38:12;;;;;;;;;;;230.50;2252.80;;;;;;5122396;27;19946;-80
2024/02/04 03:40:37;;;;;;;;;;;230.40;2252.80;;;;;;5129897;27;20378;-78
2024/02/04 03:43:03;;;;;;;;;;;230.50;2252.80;;;;;;5124937;27;20349;-77
2024/02/04 03:45:29;;;;;;;;;;;230.40;2252.80;;;;;;5124815;27;19908;-78
2024/02/04 03:47:54;;;;;;;;;;;230.40;2252.80;;;;;;5137503;27;19911;-77
2024/02/04 03:50:20;;;;;;;;;;;230.40;2252.80;;;;;;5125701;27;20368;-81
2024/02/04 03:52:45;;;;;;;;;;;230.40;2252.80;;;;;;5126075;27;19922;-78
2024/02/04 03:55:11;;;;;;;;;;;230.40;2252.80;;;;;;5120589;27;19914;-77
2024/02/04 03:57:37;;;;;;;;;;;230.40;2252.80;;;;;;5123617;27;19931;-77
2024/02/04 04:00:03;;;;;;;;;;;230.60;2252.80;;;;;;5120218;27;19907;-76
2024/02/04 04:02:28;;;;;;;;;;;230.70;2252.80;;;;;;5121704;27;19914;-76
2024/02/04 04:04:54;;;;;;;;;;;230.70;2252.80;;;;;;5123257;27;19948;-76
2024/02/04 04:07:19;;;;;;;;;;;230.80;2252.80;;;;;;5119316;27;20268;-75
2024/02/04 04:09:45;;;;;;;;;;;230.80;2252.80;;;;;;5118865;27;19903;-76
2024/02/04 04:12:10;;;;;;;;;;;230.80;2252.80;;;;;;5118667;27;19930;-76
2024/02/04 04:14:36;;;;;;;;;;;230.90;2252.80;;;;;;5126584;27;19932;-78
2024/02/04 04:17:02;;;;;;;;;;;230.90;2252.80;;;;;;5122109;27;20010;-81
2024/02/04 04:19:27;;;;;;;;;;;231.00;2252.80;;;;;;5109787;27;20364;-78
2024/02/04 04:21:54;;;;;;;;;;;231.00;2252.80;;;;;;5137248;27;19904;-78
2024/02/04 04:24:22;;;;;;;;;;;231.00;2252.80;;;;;;5113081;27;19903;-76
2024/02/04 04:26:47;;;;;;;;;;;231.00;2252.80;;;;;;5135843;27;19952;-77
2024/02/04 04:29:13;;;;;;;;;;;231.10;2252.80;;;;;;5122084;27;19908;-76
2024/02/04 04:31:38;;;;;;;;;;;231.10;2252.80;;;;;;5124584;27;19947;-76
2024/02/04 04:34:04;;;;;;;;;;;231.10;2252.80;;;;;;5119868;28;20307;-77
2024/02/04 04:36:29;;;;;;;;;;;231.20;2252.80;;;;;;5136472;27;19907;-77
2024/02/04 04:38:55;;;;;;;;;;;256.00;2252.80;;;;;;5122315;27;19955;-75
2024/02/04 04:41:21;;;;;;;;;;;256.00;2252.80;;;;;;5130653;27;19914;-78
2024/02/04 04:43:46;;;;;;;;;;;256.00;2252.80;;;;;;5147868;27;19906;-78
2024/02/04 04:46:12;;;;;;;;;;;256.10;2252.80;;;;;;5136602;27;20281;-78
2024/02/04 04:48:37;;;;;;;;;;;256.10;2252.80;;;;;;5142237;27;19950;-78
2024/02/04 04:51:03;;;;;;;;;;;256.20;2252.80;;;;;;5141685;27;19906;-79
2024/02/04 04:53:28;;;;;;;;;;;256.10;2252.80;;;;;;5143454;27;19923;-78
2024/02/04 04:55:54;;;;;;;;;;;256.10;2252.80;;;;;;5127399;27;19907;-78
2024/02/04 04:58:20;;;;;;;;;;;256.20;2252.80;;;;;;5119424;27;20318;-78
2024/02/04 05:00:46;;;;;;;;;;;256.10;2252.80;;;;;;5120277;28;19907;-78
2024/02/04 05:03:11;;;;;;;;;;;256.10;2252.80;;;;;;5140262;27;20007;-77
2024/02/04 05:05:37;;;;;;;;;;;256.00;2252.80;;;;;;5142694;27;19908;-78
2024/02/04 05:08:03;;;;;;;;;;;256.10;2252.80;;;;;;5113226;28;19914;-77
2024/02/04 05:10:29;;;;;;;;;;;256.20;2252.80;;;;;;5117120;28;19922;-75
2024/02/04 05:12:55;;;;;;;;;;;256.10;2252.80;;;;;;5124367;28;19916;-78
2024/02/04 05:15:21;;;;;;;;;;;256.20;2252.80;;;;;;5098769;28;19933;-77
2024/02/04 05:17:46;;;;;;;;;;;256.10;2252.80;;;;;;5121842;28;19911;-78
2024/02/04 05:20:12;;;;;;;;;;;256.20;2252.80;;;;;;5120756;28;19952;-78
2024/02/04 05:22:38;;;;;;;;;;;256.20;2252.80;;;;;;5122299;28;19911;-78
2024/02/04 05:25:04;;;;;;;;;;;256.10;2252.80;;;;;;5107082;28;19960;-78
2024/02/04 05:27:30;;;;;;;;;;;256.10;2252.80;;;;;;5128154;28;19990;-78
2024/02/04 05:29:56;;;;;;;;;;;256.00;2252.80;;;;;;5107561;28;19942;-79
2024/02/04 05:32:21;;;;;;;;;;;256.00;2252.80;;;;;;5117826;28;20375;-78
2024/02/04 05:34:47;;;;;;;;;;;256.00;2252.80;;;;;;5122797;27;19956;-78
2024/02/04 05:37:13;;;;;;;;;;;231.30;2252.80;;;;;;5104216;28;19908;-79
2024/02/04 05:39:39;;;;;;;;;;;231.20;2252.80;;;;;;5130738;27;20381;-78
2024/02/04 05:42:04;;;;;;;;;;;231.20;2252.80;;;;;;5101979;27;19994;-78
2024/02/04 05:44:30;;;;;;;;;;;231.20;2252.80;;;;;;5093578;28;19961;-79
2024/02/04 05:46:55;;;;;;;;;;;231.20;2252.80;;;;;;5112251;27;19918;-77
2024/02/04 05:49:21;;;;;;;;;;;231.20;2252.80;;;;;;5127549;27;19908;-82
2024/02/04 05:51:47;;;;;;;;;;;231.10;2252.80;;;;;;5106323;28;20281;-79
2024/02/04 05:54:12;;;;;;;;;;;231.10;2252.80;;;;;;5104556;27;19915;-78
2024/02/04 05:56:38;;;;;;;;;;;231.20;2252.80;;;;;;5104827;27;19911;-77
2024/02/04 05:59:04;;;;;;;;;;;231.20;2252.80;;;;;;5129474;27;19904;-78
2024/02/04 06:01:29;;;;;;;;;;;256.00;2252.80;;;;;;5130498;27;19908;-78
2024/02/04 06:03:55;;;;;;;;;;;231.10;2252.80;;;;;;5129064;27;20233;-78
2024/02/04 06:06:20;;;;;;;;;;;231.10;2252.80;;;;;;5101462;28;19908;-77
2024/02/04 06:08:47;;;;;;;;;;;231.00;2252.80;;;;;;5124315;27;20380;-78
2024/02/04 06:11:13;;;;;;;;;;;231.30;2252.80;;;;;;5127143;27;19931;-78
2024/02/04 06:13:42;;;;;;;;;;;231.10;2252.80;;;;;;5108597;27;20456;-78
2024/02/04 06:16:08;;;;;;;;;;;231.00;2252.80;;;;;;5105139;27;19922;-78
2024/02/04 06:18:35;;;;;;;;;;;231.10;2252.80;;;;;;5119454;27;20280;-78
2024/02/04 06:21:00;;;;;;;;;;;231.00;2252.80;;;;;;5099206;28;20352;-77
2024/02/04 06:23:26;;;;;;;;;;;231.00;2252.80;;;;;;5098385;28;19910;-78
2024/02/04 06:25:51;;;;;;;;;;;231.10;2252.80;;;;;;5121595;27;19910;-78
2024/02/04 06:28:17;;;;;;;;;;;231.10;2252.80;;;;;;5105895;27;19912;-78
2024/02/04 06:30:43;;;;;;;;;;;231.10;2252.80;;;;;;5096634;28;20318;-78
2024/02/04 06:33:08;;;;;;;;;;;231.10;2252.80;;;;;;5122186;27;19950;-77
2024/02/04 06:35:34;;;;;;;;;;;231.10;2252.80;;;;;;5108117;27;20353;-78
2024/02/04 06:37:59;;;;;;;;;;;231.10;2252.80;;;;;;5100503;28;19908;-77
2024/02/04 06:40:25;;;;;;;;;;;231.10;2252.80;;;;;;5105554;27;19947;-78
2024/02/04 06:42:50;;;;;;;;;;;231.20;2252.80;;;;;;5118855;27;19903;-78
2024/02/04 06:45:16;;;;;;;;;;;231.20;2252.80;;;;;;5093807;28;19954;-77
2024/02/04 06:47:45;;;;;;;;;;;231.20;2252.80;;;;;;5125568;27;19919;-78
2024/02/04 06:50:13;;;;;;;;;;;231.30;2252.80;;;;;;5120035;27;19912;-79
2024/02/04 06:52:39;;;;;;;;;;;231.30;2252.80;;;;;;5118532;27;19915;-81
2024/02/04 06:55:05;;;;;;;;;;;231.30;2252.80;;;;;;5123574;27;19908;-82
2024/02/04 06:57:31;;;;;;;;;;;256.00;2252.80;;;;;;5121667;27;19957;-80
2024/02/04 06:59:56;;;;;;;;;;;256.00;2252.80;;;;;;5106927;28;19907;-85
2024/02/04 07:02:22;;;;;;;;;;;256.00;2252.80;;;;;;5101892;28;20273;-87
2024/02/04 07:04:47;;;;;;;;;;;231.30;2252.80;;;;;;5112464;27;19954;-80
2024/02/04 07:07:13;;;;;;;;;;;231.30;2252.80;;;;;;5121148;27;19955;-80
2024/02/04 07:09:39;;;;;;;;;;;231.30;2252.80;;;;;;5115288;27;19909;-80
2024/02/04 07:12:05;;;;;;;;;;;231.30;2252.80;;;;;;5107183;27;19915;-85
2024/02/04 07:14:30;;;;;;;;;;;231.30;2252.80;;;;;;5113745;27;19907;-88
2024/02/04 07:16:56;;;;;;;;;;;231.30;2252.80;;;;;;5103092;28;19912;-84
2024/02/04 07:19:21;;;;;;;;;;;256.00;2252.80;;;;;;5101965;28;20415;-83
2024/02/04 07:21:47;;;;;;;;;;;256.20;2252.80;;;;;;5107499;27;19911;-80
2024/02/04 07:24:13;;;;;;;;;;;256.20;2252.80;;;;;;5106256;27;19930;-80
2024/02/04 07:26:38;;;;;;;;;;;256.20;2252.80;;;;;;5130176;27;19915;-80
2024/02/04 07:29:04;;;;;;;;;;;256.20;2252.80;;;;;;5113169;27;19953;-86
2024/02/04 07:31:30;;;;;;;;;;;256.40;2252.80;;;;;;5118910;27;20494;-88
2024/02/04 07:33:55;;;;;;;;;;;256.30;2252.80;;;;;;5098874;28;19911;-88
2024/02/04 07:36:21;;;;;;;;;;;256.40;2252.80;;;;;;5108192;28;19904;-84
2024/02/04 07:38:47;;;;;;;;;;;256.40;2252.80;;;;;;5113613;27;20352;-81
2024/02/04 07:41:16;;;;;;;;;;;256.40;2252.80;;;;;;5120087;27;19923;-81
2024/02/04 07:43:43;;;;;;;;;;;256.40;2252.80;;;;;;5126817;27;19908;-82
2024/02/04 07:46:09;;;;;;;;;;;256.40;2252.80;;;;;;5098527;28;19919;-79
2024/02/04 07:48:35;;;;;;;;;;;256.50;2252.80;;;;;;5104867;27;20005;-79
2024/02/04 07:51:00;;;;;;;;;;;256.60;2252.80;;;;;;5109272;27;20409;-80
2024/02/04 07:53:26;;;;;;;;;;;256.90;2252.80;;;;;;5104929;27;19937;-80
2024/02/04 07:55:52;;;;;;;;;;;281.60;2278.40;;;;;;5109969;27;19908;-81
2024/02/04 07:58:17;;;;;;;;;;;281.70;2278.40;;;;;;5112859;28;19919;-83
2024/02/04 08:00:43;;;;;;;;;;;281.70;2278.40;;;;;;5119287;27;19949;-89
2024/02/04 08:03:08;;;;;;;;;;;281.80;2278.40;;;;;;5110767;28;20015;-85
2024/02/04 08:05:35;;;;;;;;;;;281.80;2278.40;;;;;;5104512;27;19911;-86
2024/02/04 08:08:01;;;;;;;;;;;281.80;2278.40;;;;;;5114151;27;19907;-89
2024/02/04 08:10:26;;;;;;;;;;;281.80;2278.40;;;;;;5128190;27;20044;-91
2024/02/04 08:12:53;;;;;;;;;;;282.00;2278.40;;;;;;5109115;28;19923;-87
2024/02/04 08:15:19;;;;;;;;;;;282.00;2278.40;;;;;;5113382;27;19926;-84
2024/02/04 08:17:45;;;;;;;;;;;282.30;2278.40;;;;;;5107276;27;20488;-89
2024/02/04 08:20:11;;;;;;;;;;;282.30;2278.40;;;;;;5114461;27;19955;-86
2024/02/04 08:22:36;;;;;;;;;;;282.30;2278.40;;;;;;5106662;28;20302;-86
2024/02/04 08:25:02;;;;;;;;;;;282.40;2278.40;;;;;;5099957;28;19904;-90
2024/02/04 08:27:28;;;;;;;;;;;282.50;2278.40;;;;;;5111361;28;19955;-83
2024/02/04 08:29:53;;;;;;;;;;;307.30;2304.00;;;;;;5103966;28;19957;-81
2024/02/04 08:32:19;;;;;;;;;;;307.40;2304.00;;;;;;5104520;28;20026;-82
2024/02/04 08:34:45;;;;;;;;;;;307.40;2304.00;;;;;;5108007;28;19907;-80
2024/02/04 08:37:10;;;;;;;;;;;307.50;2304.00;;;;;;5116135;28;19911;-79
2024/02/04 08:39:36;;;;;;;;;;;307.60;2304.00;;;;;;5109988;28;19903;-79
2024/02/04 08:42:02;;;;;;;;;;;307.60;2304.00;;;;;;5108925;28;20010;-83
2024/02/04 08:44:27;;;;;;;;;;;307.80;2304.00;;;;;;5101422;28;19991;-82
2024/02/04 08:46:53;;;;;;;;;;;307.80;2304.00;;;;;;5109902;28;19912;-83
2024/02/04 08:49:18;;;;;;;;;;;307.90;2304.00;;;;;;5108780;28;19930;-83
2024/02/04 08:51:44;;;;;;;;;;;308.00;2304.00;;;;;;5111330;28;20361;-80
2024/02/04 08:54:11;;;;;;;;;;;308.10;2304.00;;;;;;5110158;28;19915;-85
2024/02/04 08:56:37;;;;;;;;;;;332.80;2329.60;;;;;;5111139;28;19907;-82
2024/02/04 08:59:02;;;;;;;;;;;332.90;2329.60;;;;;;5107893;28;19973;-84
2024/02/04 09:01:28;;;;;;;;;;;333.00;2329.60;;;;;;5097798;28;19908;-79
2024/02/04 09:03:53;;;;;;;;;;;333.00;2329.60;;;;;;5110812;28;20372;-84
2024/02/04 09:06:20;;;;;;;;;;;333.10;2329.60;;;;;;5105919;28;19925;-79
2024/02/04 09:08:46;;;;;;;;;;;333.20;2329.60;;;;;;5108048;28;20360;-82
2024/02/04 09:11:18;;;;;;;;;;;333.40;2329.60;;;;;;5110959;28;19915;-88
2024/02/04 09:13:47;;;;;;;;;;;333.40;2329.60;;;;;;5113434;28;19916;-80
2024/02/04 09:16:12;;;;;;;;;;;333.60;2329.60;;;;;;5108054;28;20357;-82
2024/02/04 09:18:45;;;;;;;;;;;333.60;2329.60;;;;;;5106635;27;19912;-82
2024/02/04 09:21:11;;;;;;;;;;;333.70;2329.60;;;;;;5114867;28;19962;-80
2024/02/04 09:23:36;;;;;;;;;;;358.40;2329.60;;;;;;5121054;27;19953;-83
2024/02/04 09:26:02;;;;;;;;;;;358.40;2329.60;;;;;;5108819;27;20273;-82
2024/02/04 09:28:28;;;;;;;;;;;358.50;2329.60;;;;;;5105843;27;20300;-81
2024/02/04 09:30:53;;;;;;;;;;;358.60;2329.60;;;;;;5113522;27;19907;-79
2024/02/04 09:33:19;;;;;;;;;;;358.80;2329.60;;;;;;5113687;27;19985;-80
2024/02/04 09:35:46;;;;;;;;;;;358.80;2329.60;;;;;;5112379;27;19907;-81
2024/02/04 09:38:11;;;;;;;;;;;358.90;2329.60;;;;;;5111756;28;19908;-85
2024/02/04 09:40:37;;;;;;;;;;;359.00;2329.60;;;;;;5105702;28;19908;-80
2024/02/04 09:43:03;;;;;;;;;;;359.10;2329.60;;;;;;5106807;27;19951;-81
2024/02/04 09:45:30;;;;;;;;;;;359.30;2329.60;;;;;;5107282;27;19914;-81
2024/02/04 09:47:55;;;;;;;;;;;384.30;2329.60;;;;;;5107955;27;19998;-80
2024/02/04 09:50:21;;;;;;;;;;;384.60;2329.60;;;;;;5109879;27;20414;-81
2024/02/04 09:52:51;;;;;;;;;;;384.70;2329.60;;;;;;5103236;28;20000;-80
2024/02/04 09:55:17;;;;;;;;;;;384.70;2329.60;;;;;;5104401;28;19908;-81
2024/02/04 09:57:43;;;;;;;;;;;384.90;2329.60;;;;;;5087437;28;19915;-81
2024/02/04 10:00:10;;;;;;;;;;;409.80;2329.60;;;;;;5095414;28;19911;-82
2024/02/04 10:02:36;;;;;;;;;;;409.70;2355.20;;;;;;5075811;28;19990;-83
2024/02/04 10:05:03;;;;;;;;;;;410.00;2278.40;;;;;;5096176;28;19907;-80
2024/02/04 10:07:28;;;;;;;;;;;409.90;2278.40;;;;;;5091240;28;19919;-81
2024/02/04 10:09:54;;;;;;;;;;;435.20;2176.00;;;;;;5085480;28;21460;-81
2024/02/04 10:12:20;;;;;;;;;;;435.30;2073.60;;;;;;5088084;28;19923;-80
2024/02/04 10:14:46;;;;;;;;;;;435.40;2073.60;;;;;;5104381;28;19915;-83
2024/02/04 10:17:13;;;;;;;;;;;435.60;2048.00;;;;;;5086867;28;20286;-79
2024/02/04 10:19:39;;;;;;;;;;;435.70;2022.40;;;;;;5108394;28;19907;-79
2024/02/04 10:22:05;;;;;;;;;;;435.90;2022.40;;;;;;5102618;28;19934;-77
2024/02/04 10:24:30;;;;;;;;;;;436.10;1971.20;;;;;;5109394;28;20365;-79
2024/02/04 10:26:56;;;;;;;;;;;460.80;1996.80;;;;;;5088593;28;19951;-79
2024/02/04 10:29:23;;;;;;;;;;;436.10;1996.80;;;;;;5088174;28;19911;-79
2024/02/04 10:31:48;;;;;;;;;;;435.60;2073.60;;;;;;5082849;28;19919;-79
2024/02/04 10:34:14;;;;;;;;;;;410.50;2124.80;;;;;;5087072;28;19904;-79
2024/02/04 10:36:40;;;;;;;;;;;435.30;2150.40;;;;;;5097155;28;20273;-78
2024/02/04 10:39:06;;;;;;;;;;;410.40;2176.00;;;;;;5099125;28;19904;-78
2024/02/04 10:41:33;;;;;;;;;;;435.50;2099.20;;;;;;5105826;28;19915;-78
2024/02/04 10:44:02;;;;;;;;;;;435.90;2048.00;;;;;;5084292;28;19911;-78
2024/02/04 10:46:29;;;;;;;;;;;436.10;1996.80;;;;;;5103540;28;19919;-77
2024/02/04 10:48:57;;;;;;;;;;;461.10;1996.80;;;;;;5105885;28;19908;-77
2024/02/04 10:51:28;;;;;;;;;;;460.80;1996.80;;;;;;5101021;28;19914;-79
2024/02/04 10:53:55;;;;;;;;;;;461.00;1971.20;;;;;;5086140;28;19916;-80
2024/02/04 10:56:21;;;;;;;;;;;461.10;1945.60;;;;;;5083287;28;19961;-80
2024/02/04 10:58:47;;;;;;;;;;;436.10;1971.20;;;;;;5104736;28;19904;-79
2024/02/04 11:01:13;;;;;;;;;;;460.90;1971.20;;;;;;5088776;28;19903;-80
2024/02/04 11:03:39;;;;;;;;;;;461.30;1920.00;;;;;;5088756;28;19912;-78
2024/02/04 11:06:04;;;;;;;;;;;435.90;1971.20;;;;;;5082703;28;19908;-79
2024/02/04 11:08:30;;;;;;;;;;;436.10;1945.60;;;;;;5089590;28;19915;-79
2024/02/04 11:10:56;;;;;;;;;;;461.00;1920.00;;;;;;5080993;28;19998;-79
2024/02/04 11:13:22;;;;;;;;;;;;;;;;;;5080511;28;19922;-79
2024/02/04 11:15:48;;;;;;;;;;;461.50;1894.40;;;;;;5105557;28;19957;-77
2024/02/04 11:18:27;;;;;;;;;;;486.50;1868.80;;;;;;5084274;28;19910;-80
2024/02/04 11:20:58;;;;;;;;;;;486.60;1843.20;;;;;;5103278;28;19904;-80
2024/02/04 11:23:28;;;;;;;;;;;486.50;1817.60;;;;;;5092770;28;20373;-78
2024/02/04 11:25:57;;;;;;;;;;;486.40;1817.60;;;;;;5088327;28;20254;-82
2024/02/04 11:28:26;;;;;;;;;;;486.40;1817.60;;;;;;5103683;28;19924;-78
2024/02/04 11:30:52;;;;;;;;;;;486.40;1843.20;;;;;;5103996;28;19950;-82
2024/02/04 11:33:19;;;;;;;;;;;461.60;1868.80;;;;;;5089042;28;19978;-81
2024/02/04 11:35:45;;;;;;;;;;;461.50;1868.80;;;;;;5094713;28;19907;-84
2024/02/04 11:38:13;;;;;;;;;;;486.50;1894.40;;;;;;5081244;28;19915;-82
2024/02/04 11:40:39;;;;;;;;;;;461.40;1868.80;;;;;;5107704;28;19911;-81
2024/02/04 11:43:05;;;;;;;;;;;461.30;1894.40;;;;;;5086973;28;19907;-81
2024/02/04 11:45:30;;;;;;;;;;;461.40;1920.00;;;;;;5086153;28;19961;-84
2024/02/04 11:48:03;;;;;;;;;;;461.40;1894.40;;;;;;5081271;28;19912;-81
2024/02/04 11:50:32;;;;;;;;;;;461.60;1894.40;;;;;;5085652;28;19912;-81
2024/02/04 11:53:06;;;;;;;;;;;461.70;1868.80;;;;;;5104779;28;19916;-85
2024/02/04 11:55:33;;;;;;;;;;;461.40;1868.80;;;;;;5102472;28;19961;-85
2024/02/04 11:57:59;;;;;;;;;;;461.40;1894.40;;;;;;5108527;28;19928;-82
2024/02/04 12:00:25;;;;;;;;;;;461.50;1894.40;;;;;;5094613;28;19904;-84
2024/02/04 12:03:06;;;;;;;;;;;461.40;1894.40;;;;;;5099582;28;19904;-85
2024/02/04 12:05:35;;;;;;;;;;;461.50;1894.40;;;;;;5093438;28;19994;-83
2024/02/04 12:08:05;;;;;;;;;;;461.50;1868.80;;;;;;5090095;28;20002;-81
2024/02/04 12:10:31;;;;;;;;;;;461.50;1843.20;;;;;;5104670;28;20361;-81
2024/02/04 12:13:03;;;;;;;;;;;461.30;1843.20;;;;;;5080153;28;20029;-85
2024/02/04 12:15:32;;;;;;;;;;;461.30;1843.20;;;;;;5079921;28;19908;-81
2024/02/04 12:18:07;;;;;;;;;;;461.20;1868.80;;;;;;5082782;28;19908;-81
2024/02/04 12:20:33;;;;;;;;;;;461.30;1868.80;;;;;;5087986;28;19904;-83
2024/02/04 12:22:58;;;;;;;;;;;461.40;1843.20;;;;;;5110524;28;19953;-81
2024/02/04 12:25:27;;;;;;;;;;;461.10;1868.80;;;;;;5093144;28;19995;-86
2024/02/04 12:27:53;;;;;;;;;;;461.30;1843.20;;;;;;5088423;28;19914;-80
2024/02/04 12:30:18;;;;;;;;;;;461.30;1792.00;;;;;;5081410;28;19904;-81
2024/02/04 12:32:44;;;;;;;;;;;461.30;1817.60;;;;;;5092425;28;19965;-82
2024/02/04 12:35:16;;;;;;;;;;;461.30;1843.20;;;;;;5088532;28;19916;-89
2024/02/04 12:38:02;;;;;;;;;;;461.30;1843.20;;;;;;5086505;28;19904;-83
2024/02/04 12:40:29;;;;;;;;;;;461.30;1843.20;;;;;;5090712;28;19964;-85
2024/02/04 12:43:02;;;;;;;;;;;461.20;1843.20;;;;;;5089072;28;20000;-85
2024/02/04 12:45:28;;;;;;;;;;;461.20;1792.00;;;;;;5095843;28;19915;-78
2024/02/04 12:47:57;;;;;;;;;;;461.00;1766.40;;;;;;5109378;28;19912;-80
2024/02/04 12:50:23;;;;;;;;;;;436.10;1792.00;;;;;;5093802;28;19912;-79
2024/02/04 12:52:50;;;;;;;;;;;460.90;1817.60;;;;;;5092651;28;20365;-79
2024/02/04 12:55:19;;;;;;;;;;;460.80;1817.60;;;;;;5096357;28;19915;-79
2024/02/04 12:57:45;;;;;;;;;;;460.90;1817.60;;;;;;5114385;28;19918;-84
2024/02/04 13:00:12;;;;;;;;;;;460.90;1792.00;;;;;;5089659;28;20345;-84
2024/02/04 13:02:38;;;;;;;;;;;460.90;1817.60;;;;;;5095217;28;19908;-82
2024/02/04 13:05:04;;;;;;;;;;;436.10;1792.00;;;;;;5107873;28;20384;-82
2024/02/04 13:07:30;;;;;;;;;;;436.00;1792.00;;;;;;5095272;28;19908;-81
2024/02/04 13:10:01;;;;;;;;;;;435.90;1792.00;;;;;;5098649;28;19952;-84
2024/02/04 13:12:27;;;;;;;;;;;435.90;1792.00;;;;;;5100245;28;19974;-84
2024/02/04 13:14:52;;;;;;;;;;;435.80;1817.60;;;;;;5076500;28;20361;-84
2024/02/04 13:17:18;;;;;;;;;;;435.60;1817.60;;;;;;5077584;28;19917;-83
2024/02/04 13:19:44;;;;;;;;;;;435.60;1843.20;;;;;;5095256;28;19910;-84
2024/02/04 13:22:10;;;;;;;;;;;435.60;1868.80;;;;;;5101337;28;19907;-80
2024/02/04 13:24:35;;;;;;;;;;;435.70;1868.80;;;;;;5091762;28;19911;-83
2024/02/04 13:27:03;;;;;;;;;;;435.70;1843.20;;;;;;5104771;28;19912;-84
2024/02/04 13:29:28;;;;;;;;;;;435.70;1843.20;;;;;;5106803;28;19931;-83
2024/02/04 13:31:54;;;;;;;;;;;435.60;1817.60;;;;;;5087556;28;20306;-83
2024/02/04 13:34:20;;;;;;;;;;;435.60;1843.20;;;;;;5091518;28;20351;-83
2024/02/04 13:36:46;;;;;;;;;;;435.60;1843.20;;;;;;5093810;28;19915;-83